Terrytown, Nebraska
Current Conditions -  °F | °C
As of 11:53 PM on Thursday 27 Nov 2014 (Local Time) from KBFF Reporting Station
Clear Clear  
Wind Chill: 33°   Ceiling: Unl
Heat Index: 33°   Visibility: 10mi
Dew Point: 25°   Wind: 3mph
Humidity: 72%   Direction: 110°ESE
Pressure: 29.95"   Gusts: NA
Location:  41.7826°N, 103.681°W
Report Text: KBFF 280653Z AUTO 11003KT 10SM CLR 01/M04 A2995 RMK AO2 SLP162 T00061039 401281122
Loading
Personal Weather Stations






























Interactive Weather Map New forecast layout! Learn more

10-Day Weather Forecast

Advertisements
Track Severe Weather on mobile